Time;durP1;ratioP1;P1;durP2;ratioP2;P2;SDS_P1;SDS_P2;PMS_P1;PMS_P2;Temp;Humidity;BMP_temperature;BMP_pressure;BME280_temperature;BME280_humidity;BME280_pressure;Samples;Min_cycle;Max_cycle;Signal;HPM_P1;HPM_P2
2023/04/24 00:01:00;;;;;;;;;;;10.70;99.90;;;;;;5087738;28;19935;-88
2023/04/24 00:03:27;;;;;;;;;;;10.70;99.90;;;;;;5098758;28;19930;-88
2023/04/24 00:05:56;;;;;;;;;;;10.70;99.90;;;;;;5121043;28;19991;-87
2023/04/24 00:08:23;;;;;;;;;;;10.70;99.90;;;;;;5082789;28;20315;-86
2023/04/24 00:10:49;;;;;;;;;;;10.70;99.90;;;;;;5119298;28;20338;-86
2023/04/24 00:13:14;;;;;;;;;;;10.80;99.90;;;;;;5116418;28;19924;-87
2023/04/24 00:15:40;;;;;;;;;;;10.80;99.90;;;;;;5107255;28;19935;-89
2023/04/24 00:18:06;;;;;;;;;;;10.80;99.90;;;;;;5096900;28;19928;-89
2023/04/24 00:20:35;;;;;;;;;;;10.80;99.90;;;;;;5084464;28;19998;-89
2023/04/24 00:23:01;;;;;;;;;;;10.80;99.90;;;;;;5116824;28;20018;-88
2023/04/24 00:25:26;;;;;;;;;;;10.80;99.90;;;;;;5112886;28;19924;-87
2023/04/24 00:27:52;;;;;;;;;;;10.80;99.90;;;;;;5118530;28;19924;-87
2023/04/24 00:30:18;;;;;;;;;;;10.70;99.90;;;;;;5118733;28;19924;-88
2023/04/24 00:32:43;;;;;;;;;;;10.70;99.90;;;;;;5105416;28;19970;-88
2023/04/24 00:35:10;;;;;;;;;;;10.60;99.90;;;;;;5102151;28;19932;-88
2023/04/24 00:37:35;;;;;;;;;;;10.50;99.90;;;;;;5091604;28;19924;-88
2023/04/24 00:40:02;;;;;;;;;;;10.50;99.90;;;;;;5084473;28;19930;-89
2023/04/24 00:42:28;;;;;;;;;;;10.40;99.90;;;;;;5099042;28;19923;-87
2023/04/24 00:44:53;;;;;;;;;;;10.40;99.90;;;;;;5121089;27;19998;-88
2023/04/24 00:47:19;;;;;;;;;;;10.40;99.90;;;;;;5090061;27;19948;-88
2023/04/24 00:49:45;;;;;;;;;;;10.30;99.90;;;;;;5110930;27;20002;-88
2023/04/24 00:52:12;;;;;;;;;;;10.30;99.90;;;;;;5104661;27;19934;-87
2023/04/24 00:54:37;;;;;;;;;;;10.30;99.90;;;;;;5107036;27;20429;-87
2023/04/24 00:57:03;;;;;;;;;;;10.20;99.90;;;;;;5106067;27;19932;-87
2023/04/24 00:59:29;;;;;;;;;;;10.30;99.90;;;;;;5119392;27;20486;-90
2023/04/24 01:01:55;;;;;;;;;;;10.20;99.90;;;;;;5118012;27;19924;-88
2023/04/24 01:04:21;;;;;;;;;;;10.20;99.90;;;;;;5121134;27;19934;-91
2023/04/24 01:06:47;;;;;;;;;;;10.20;99.90;;;;;;5109402;27;19924;-90
2023/04/24 01:09:14;;;;;;;;;;;10.20;99.90;;;;;;5129870;27;19923;-89
2023/04/24 01:11:41;;;;;;;;;;;10.10;99.90;;;;;;5127144;27;19929;-89
2023/04/24 01:14:07;;;;;;;;;;;10.10;99.90;;;;;;5128064;27;19979;-89
2023/04/24 01:16:33;;;;;;;;;;;10.10;99.90;;;;;;5125368;27;19946;-89
2023/04/24 01:18:58;;;;;;;;;;;10.10;99.90;;;;;;5095277;28;19987;-89
2023/04/24 01:21:27;;;;;;;;;;;10.10;99.90;;;;;;5084622;28;19931;-89
2023/04/24 01:23:53;;;;;;;;;;;10.10;99.90;;;;;;5110275;27;19935;-89
2023/04/24 01:26:19;;;;;;;;;;;10.10;99.90;;;;;;5105384;28;19924;-90
2023/04/24 01:28:46;;;;;;;;;;;10.10;99.90;;;;;;5087858;27;19927;-90
2023/04/24 01:31:11;;;;;;;;;;;10.10;99.90;;;;;;5106143;27;19923;-89
2023/04/24 01:33:37;;;;;;;;;;;10.10;99.90;;;;;;5112506;28;19934;-89
2023/04/24 01:36:03;;;;;;;;;;;10.00;99.90;;;;;;5103965;27;20336;-88
2023/04/24 01:38:29;;;;;;;;;;;10.00;99.90;;;;;;5103862;27;19934;-89
2023/04/24 01:40:54;;;;;;;;;;;10.00;99.90;;;;;;5107016;27;19934;-90
2023/04/24 01:43:20;;;;;;;;;;;10.00;99.90;;;;;;5086176;28;19931;-90
2023/04/24 01:45:46;;;;;;;;;;;10.00;99.90;;;;;;5096643;27;19924;-89
2023/04/24 01:48:12;;;;;;;;;;;10.00;99.90;;;;;;5107336;28;20447;-91
2023/04/24 01:50:38;;;;;;;;;;;10.00;99.90;;;;;;5098794;27;19991;-91
2023/04/24 01:53:03;;;;;;;;;;;9.90;99.90;;;;;;5104358;27;19923;-89
2023/04/24 01:55:29;;;;;;;;;;;10.00;99.90;;;;;;5118257;27;19927;-91
2023/04/24 01:57:55;;;;;;;;;;;10.00;99.90;;;;;;5116612;27;19945;-89
2023/04/24 02:00:24;;;;;;;;;;;10.00;99.90;;;;;;5119938;27;19953;-88
2023/04/24 02:02:50;;;;;;;;;;;10.80;99.90;;;;;;5095747;28;20014;-89
2023/04/24 02:05:16;;;;;;;;;;;10.00;99.90;;;;;;5082906;28;20402;-89
2023/04/24 02:07:41;;;;;;;;;;;10.00;99.90;;;;;;5099523;27;19923;-88
2023/04/24 02:10:07;;;;;;;;;;;9.90;99.90;;;;;;5087277;27;19924;-88
2023/04/24 02:12:33;;;;;;;;;;;9.90;99.90;;;;;;5094967;27;20329;-90
2023/04/24 02:14:58;;;;;;;;;;;10.00;99.90;;;;;;5107191;27;20000;-88
2023/04/24 02:17:24;;;;;;;;;;;10.00;99.90;;;;;;5106589;27;19923;-89
2023/04/24 02:19:50;;;;;;;;;;;10.00;99.90;;;;;;5108821;27;20230;-89
2023/04/24 02:22:15;;;;;;;;;;;10.00;99.90;;;;;;5102680;28;20014;-88
2023/04/24 02:24:41;;;;;;;;;;;10.00;99.90;;;;;;5107902;27;19923;-89
2023/04/24 02:27:07;;;;;;;;;;;10.00;99.90;;;;;;5107177;27;19923;-89
2023/04/24 02:29:32;;;;;;;;;;;9.90;99.90;;;;;;5091554;27;19927;-89
2023/04/24 02:31:58;;;;;;;;;;;10.00;99.90;;;;;;5099297;27;19950;-88
2023/04/24 02:34:23;;;;;;;;;;;10.00;99.90;;;;;;5110247;28;20253;-89
2023/04/24 02:36:49;;;;;;;;;;;9.90;99.90;;;;;;5099488;28;19937;-90
2023/04/24 02:39:16;;;;;;;;;;;9.90;99.90;;;;;;5115774;27;19949;-89
2023/04/24 02:41:42;;;;;;;;;;;9.90;99.90;;;;;;5113987;28;20398;-90
2023/04/24 02:44:08;;;;;;;;;;;9.90;99.90;;;;;;5105224;28;19952;-89
2023/04/24 02:46:35;;;;;;;;;;;9.90;99.90;;;;;;5108924;27;20220;-89
2023/04/24 02:49:01;;;;;;;;;;;9.90;99.90;;;;;;5086498;28;19945;-88
2023/04/24 02:51:26;;;;;;;;;;;9.90;99.90;;;;;;5106705;28;20279;-89
2023/04/24 02:53:52;;;;;;;;;;;9.90;99.90;;;;;;5105399;28;19923;-89
2023/04/24 02:56:18;;;;;;;;;;;9.90;99.90;;;;;;5121335;28;19924;-88
2023/04/24 02:58:43;;;;;;;;;;;9.90;99.90;;;;;;5102176;28;19931;-89
2023/04/24 03:01:12;;;;;;;;;;;9.90;99.90;;;;;;5103182;28;19949;-89
2023/04/24 03:03:38;;;;;;;;;;;10.00;99.90;;;;;;5111682;28;20164;-89
2023/04/24 03:06:05;;;;;;;;;;;9.90;99.90;;;;;;5099120;28;19931;-88
2023/04/24 03:08:31;;;;;;;;;;;9.90;99.90;;;;;;5118913;28;19968;-88
2023/04/24 03:10:57;;;;;;;;;;;9.90;99.90;;;;;;5106617;28;19953;-89
2023/04/24 03:13:22;;;;;;;;;;;9.90;99.90;;;;;;5090192;28;19924;-94
2023/04/24 03:15:48;;;;;;;;;;;9.90;99.90;;;;;;5106978;28;19924;-93
2023/04/24 03:18:14;;;;;;;;;;;9.90;99.90;;;;;;5098410;28;19923;-94
2023/04/24 03:20:39;;;;;;;;;;;9.90;99.90;;;;;;5103388;28;19927;-94
2023/04/24 03:23:05;;;;;;;;;;;9.90;99.90;;;;;;5120547;28;19987;-92
2023/04/24 03:25:30;;;;;;;;;;;9.90;99.90;;;;;;5095595;28;19923;-93
2023/04/24 03:27:56;;;;;;;;;;;9.90;99.90;;;;;;5118480;28;19958;-92
2023/04/24 03:30:22;;;;;;;;;;;9.90;99.90;;;;;;5088551;28;19946;-93
2023/04/24 03:32:47;;;;;;;;;;;9.80;99.90;;;;;;5105119;28;19924;-93
2023/04/24 03:35:13;;;;;;;;;;;10.50;99.90;;;;;;5099171;28;19924;-93
2023/04/24 03:37:39;;;;;;;;;;;9.90;99.90;;;;;;5112253;28;19957;-92
2023/04/24 03:40:06;;;;;;;;;;;9.80;99.90;;;;;;5125786;28;19932;-92
2023/04/24 03:42:32;;;;;;;;;;;9.80;99.90;;;;;;5109217;28;19923;-95
2023/04/24 03:44:58;;;;;;;;;;;9.90;99.90;;;;;;5110679;28;19984;-93
2023/04/24 03:47:23;;;;;;;;;;;9.90;99.90;;;;;;5119971;27;19938;-93
2023/04/24 03:49:49;;;;;;;;;;;9.80;99.90;;;;;;5094059;27;20398;-94
2023/04/24 03:52:15;;;;;;;;;;;9.80;99.90;;;;;;5136931;27;19930;-94
2023/04/24 03:54:41;;;;;;;;;;;9.80;99.90;;;;;;5137644;27;19923;-93
2023/04/24 03:57:06;;;;;;;;;;;9.80;99.90;;;;;;5125902;27;19923;-92
2023/04/24 03:59:32;;;;;;;;;;;9.80;99.90;;;;;;5113325;27;19923;-94
2023/04/24 04:01:57;;;;;;;;;;;9.80;99.90;;;;;;5147815;27;19930;-93
2023/04/24 04:04:23;;;;;;;;;;;9.80;99.90;;;;;;5138500;27;19922;-95
2023/04/24 04:06:48;;;;;;;;;;;9.80;99.90;;;;;;5137280;27;19927;-93
2023/04/24 04:09:14;;;;;;;;;;;9.80;99.90;;;;;;5123565;27;19987;-94
2023/04/24 04:11:40;;;;;;;;;;;9.80;99.90;;;;;;5114343;27;19931;-93
2023/04/24 04:14:06;;;;;;;;;;;9.80;99.90;;;;;;5135983;27;19923;-93
2023/04/24 04:16:31;;;;;;;;;;;9.80;99.90;;;;;;5120296;27;19930;-94
2023/04/24 04:18:57;;;;;;;;;;;9.80;99.90;;;;;;5137592;27;19923;-92
2023/04/24 04:21:22;;;;;;;;;;;9.80;99.90;;;;;;5137718;27;20393;-92
2023/04/24 04:23:48;;;;;;;;;;;9.80;99.90;;;;;;5118593;27;19924;-92
2023/04/24 04:26:14;;;;;;;;;;;9.80;99.90;;;;;;5153793;27;20374;-92
2023/04/24 04:28:39;;;;;;;;;;;9.70;99.90;;;;;;5105079;27;19927;-93
2023/04/24 04:31:05;;;;;;;;;;;9.70;99.90;;;;;;5131145;27;19928;-93
2023/04/24 04:33:31;;;;;;;;;;;9.80;99.90;;;;;;5117862;27;19924;-92
2023/04/24 04:35:58;;;;;;;;;;;9.70;99.90;;;;;;5107793;27;20018;-92
2023/04/24 04:38:24;;;;;;;;;;;9.70;99.90;;;;;;5107998;27;19923;-92
2023/04/24 04:40:49;;;;;;;;;;;9.70;99.90;;;;;;5100967;27;19985;-91
2023/04/24 04:43:15;;;;;;;;;;;9.70;99.90;;;;;;5107228;28;20489;-90
2023/04/24 04:45:43;;;;;;;;;;;9.70;99.90;;;;;;5084869;27;20290;-93
2023/04/24 04:48:09;;;;;;;;;;;9.70;99.90;;;;;;5087839;28;19924;-92
2023/04/24 04:50:35;;;;;;;;;;;9.70;99.90;;;;;;5100887;28;19924;-91
2023/04/24 04:53:00;;;;;;;;;;;9.60;99.90;;;;;;5080159;27;19935;-92
2023/04/24 04:55:26;;;;;;;;;;;9.60;99.90;;;;;;5107688;27;19931;-92
2023/04/24 04:57:52;;;;;;;;;;;9.60;99.90;;;;;;5121399;27;19952;-92
2023/04/24 05:00:18;;;;;;;;;;;9.60;99.90;;;;;;5105011;27;19924;-93
2023/04/24 05:02:43;;;;;;;;;;;9.60;99.90;;;;;;5106241;27;20023;-92
2023/04/24 05:05:09;;;;;;;;;;;9.60;99.90;;;;;;5087391;28;19934;-92
2023/04/24 05:07:35;;;;;;;;;;;9.60;99.90;;;;;;5105556;28;19924;-91
2023/04/24 05:10:00;;;;;;;;;;;9.60;99.90;;;;;;5113919;27;19923;-93
2023/04/24 05:12:26;;;;;;;;;;;9.50;99.90;;;;;;5084879;27;19938;-92
2023/04/24 05:14:52;;;;;;;;;;;9.50;99.90;;;;;;5136087;27;19924;-93
2023/04/24 05:17:18;;;;;;;;;;;9.50;99.90;;;;;;5137156;27;20386;-93
2023/04/24 05:19:44;;;;;;;;;;;9.50;99.90;;;;;;5118782;28;19963;-93
2023/04/24 05:22:10;;;;;;;;;;;9.50;99.90;;;;;;5095280;27;19927;-93
2023/04/24 05:24:36;;;;;;;;;;;9.60;99.90;;;;;;5091658;27;19930;-93
2023/04/24 05:27:02;;;;;;;;;;;9.50;99.90;;;;;;5105156;27;19923;-92
2023/04/24 05:29:30;;;;;;;;;;;9.60;99.90;;;;;;5123514;27;19924;-94
2023/04/24 05:31:56;;;;;;;;;;;9.60;99.90;;;;;;5101554;28;19923;-93
2023/04/24 05:34:22;;;;;;;;;;;9.60;99.90;;;;;;5107011;27;20379;-94
2023/04/24 05:36:47;;;;;;;;;;;9.60;99.90;;;;;;5136180;27;19949;-93
2023/04/24 05:39:13;;;;;;;;;;;9.70;99.90;;;;;;5119970;27;19925;-92
2023/04/24 05:41:39;;;;;;;;;;;9.70;99.90;;;;;;5093439;27;19928;-93
2023/04/24 05:44:05;;;;;;;;;;;9.70;99.90;;;;;;5100424;27;19976;-91
2023/04/24 05:46:30;;;;;;;;;;;9.70;99.90;;;;;;5111339;27;19924;-91
2023/04/24 05:48:56;;;;;;;;;;;9.80;99.90;;;;;;5119386;27;20007;-92
2023/04/24 05:51:21;;;;;;;;;;;9.70;99.90;;;;;;5104941;27;19923;-91
2023/04/24 05:53:47;;;;;;;;;;;9.80;99.90;;;;;;5085566;28;19933;-91
2023/04/24 05:56:13;;;;;;;;;;;9.80;99.90;;;;;;5078919;27;19980;-93
2023/04/24 05:58:39;;;;;;;;;;;9.80;99.90;;;;;;5085733;27;20019;-94
2023/04/24 06:01:05;;;;;;;;;;;9.80;99.90;;;;;;5119622;28;19950;-93
2023/04/24 06:03:31;;;;;;;;;;;9.90;99.90;;;;;;5103564;27;19931;-91
2023/04/24 06:05:57;;;;;;;;;;;9.80;99.90;;;;;;5100168;27;19980;-94
2023/04/24 06:08:22;;;;;;;;;;;9.80;99.90;;;;;;5109346;27;19928;-93
2023/04/24 06:10:48;;;;;;;;;;;9.80;99.90;;;;;;5098515;27;19950;-93
2023/04/24 06:13:15;;;;;;;;;;;9.90;99.90;;;;;;5106883;27;19977;-91
2023/04/24 06:15:41;;;;;;;;;;;9.90;99.90;;;;;;5135409;27;20345;-93
2023/04/24 06:18:06;;;;;;;;;;;9.90;99.90;;;;;;5104338;27;19946;-93
2023/04/24 06:20:34;;;;;;;;;;;9.90;99.90;;;;;;5099473;28;19924;-95
2023/04/24 06:22:59;;;;;;;;;;;9.90;99.90;;;;;;5079842;27;19927;-93
2023/04/24 06:25:26;;;;;;;;;;;9.80;99.90;;;;;;5090997;27;19968;-92
2023/04/24 06:27:52;;;;;;;;;;;9.80;99.90;;;;;;5114664;27;19962;-91
2023/04/24 06:30:17;;;;;;;;;;;9.90;99.90;;;;;;5114971;27;19924;-93
2023/04/24 06:32:44;;;;;;;;;;;9.90;99.90;;;;;;5111899;27;19931;-93
2023/04/24 06:35:11;;;;;;;;;;;9.80;99.90;;;;;;5081366;28;19938;-94
2023/04/24 06:37:36;;;;;;;;;;;9.90;99.90;;;;;;5108066;27;19923;-94
2023/04/24 06:40:02;;;;;;;;;;;9.80;99.90;;;;;;5092778;27;20030;-92
2023/04/24 06:42:28;;;;;;;;;;;9.80;99.90;;;;;;5110289;28;19992;-95
2023/04/24 06:44:54;;;;;;;;;;;9.90;99.90;;;;;;5120322;27;19924;-93
2023/04/24 06:47:19;;;;;;;;;;;10.00;99.90;;;;;;5098721;27;20004;-91
2023/04/24 06:49:45;;;;;;;;;;;9.90;99.90;;;;;;5115279;28;19939;-92
2023/04/24 06:52:10;;;;;;;;;;;10.00;99.90;;;;;;5110971;28;19923;-92
2023/04/24 06:54:36;;;;;;;;;;;10.00;99.90;;;;;;5126207;28;19967;-93
2023/04/24 06:57:02;;;;;;;;;;;9.90;99.90;;;;;;5091281;28;19924;-93
2023/04/24 06:59:28;;;;;;;;;;;9.90;99.90;;;;;;5104890;28;19931;-92
2023/04/24 07:01:53;;;;;;;;;;;9.90;99.90;;;;;;5100987;28;19930;-93
2023/04/24 07:04:19;;;;;;;;;;;9.90;99.90;;;;;;5130630;28;19934;-92
2023/04/24 07:06:45;;;;;;;;;;;9.90;99.90;;;;;;5098864;28;20361;-93
2023/04/24 07:09:11;;;;;;;;;;;9.90;99.90;;;;;;5110593;28;19991;-93
2023/04/24 07:11:38;;;;;;;;;;;9.90;99.90;;;;;;5103418;28;19923;-94
2023/04/24 07:14:04;;;;;;;;;;;9.90;99.90;;;;;;5085480;28;19924;-92
2023/04/24 07:16:30;;;;;;;;;;;9.90;99.90;;;;;;5101598;28;19973;-92
2023/04/24 07:18:55;;;;;;;;;;;10.00;99.90;;;;;;5108716;28;19923;-90
2023/04/24 07:21:21;;;;;;;;;;;10.00;99.90;;;;;;5101814;27;20501;-89
2023/04/24 07:23:47;;;;;;;;;;;10.00;99.90;;;;;;5108618;27;19955;-91
2023/04/24 07:26:14;;;;;;;;;;;10.00;99.90;;;;;;5085474;28;19963;-92
2023/04/24 07:28:40;;;;;;;;;;;10.00;99.90;;;;;;5100728;28;19923;-92
2023/04/24 07:31:06;;;;;;;;;;;10.00;99.90;;;;;;5122197;27;19930;-91
2023/04/24 07:33:32;;;;;;;;;;;10.00;99.90;;;;;;5123116;27;19924;-91
2023/04/24 07:35:58;;;;;;;;;;;9.90;99.90;;;;;;5122442;27;20269;-92
2023/04/24 07:38:25;;;;;;;;;;;10.00;99.90;;;;;;5117684;27;19923;-92
2023/04/24 07:40:51;;;;;;;;;;;9.90;99.90;;;;;;5101816;27;19978;-92
2023/04/24 07:43:17;;;;;;;;;;;9.90;99.90;;;;;;5124010;27;19923;-92
2023/04/24 07:45:43;;;;;;;;;;;9.90;99.90;;;;;;5100546;27;19934;-93
2023/04/24 07:48:10;;;;;;;;;;;9.80;99.90;;;;;;5100797;28;19928;-92
2023/04/24 07:50:36;;;;;;;;;;;9.80;99.90;;;;;;5118778;27;20010;-91
2023/04/24 07:53:02;;;;;;;;;;;9.80;99.90;;;;;;5117358;27;19923;-92
2023/04/24 07:55:28;;;;;;;;;;;9.80;99.90;;;;;;5123622;27;20298;-92
2023/04/24 07:57:53;;;;;;;;;;;10.70;99.90;;;;;;5103484;27;19923;-92
2023/04/24 08:00:19;;;;;;;;;;;9.80;99.90;;;;;;5099433;28;19935;-91
2023/04/24 08:02:45;;;;;;;;;;;9.80;99.90;;;;;;5115265;27;19923;-92
2023/04/24 08:05:11;;;;;;;;;;;9.80;99.90;;;;;;5117679;27;19930;-91
2023/04/24 08:07:37;;;;;;;;;;;9.80;99.90;;;;;;5111793;27;20366;-93
2023/04/24 08:10:03;;;;;;;;;;;9.70;99.90;;;;;;5104303;27;20534;-92
2023/04/24 08:12:29;;;;;;;;;;;8.80;99.90;;;;;;5091839;27;19927;-92
2023/04/24 08:14:54;;;;;;;;;;;9.70;99.90;;;;;;5111002;27;19930;-89
2023/04/24 08:17:20;;;;;;;;;;;9.70;99.90;;;;;;5108646;28;19930;-93
2023/04/24 08:19:48;;;;;;;;;;;9.70;99.90;;;;;;5120828;27;19933;-92
2023/04/24 08:22:14;;;;;;;;;;;9.60;99.90;;;;;;5116324;27;19924;-91
2023/04/24 08:24:40;;;;;;;;;;;9.50;99.90;;;;;;5113938;27;20018;-91
2023/04/24 08:27:05;;;;;;;;;;;9.50;99.90;;;;;;5096139;28;19978;-91
2023/04/24 08:29:31;;;;;;;;;;;9.50;99.90;;;;;;5116216;27;19983;-91
2023/04/24 08:31:57;;;;;;;;;;;9.40;99.90;;;;;;5101806;27;19923;-94
2023/04/24 08:34:23;;;;;;;;;;;9.40;99.90;;;;;;5085401;28;19967;-94
2023/04/24 08:36:48;;;;;;;;;;;9.40;99.90;;;;;;5108520;27;19927;-93
2023/04/24 08:39:14;;;;;;;;;;;9.40;99.90;;;;;;5095321;27;19927;-94
2023/04/24 08:41:42;;;;;;;;;;;9.30;99.90;;;;;;5119072;27;20409;-94
2023/04/24 08:44:09;;;;;;;;;;;9.30;99.90;;;;;;5112941;27;19930;-94
2023/04/24 08:46:35;;;;;;;;;;;9.30;99.90;;;;;;5113995;27;19995;-94
2023/04/24 08:49:02;;;;;;;;;;;9.20;99.90;;;;;;5101689;27;19924;-95
2023/04/24 08:51:28;;;;;;;;;;;9.20;99.90;;;;;;5112095;27;19924;-94
2023/04/24 08:53:54;;;;;;;;;;;9.10;99.90;;;;;;5112212;27;20346;-94
2023/04/24 08:56:23;;;;;;;;;;;9.10;99.90;;;;;;5117306;28;19928;-94
2023/04/24 08:58:50;;;;;;;;;;;9.00;99.90;;;;;;5117333;27;19923;-95
2023/04/24 09:01:16;;;;;;;;;;;10.00;99.90;;;;;;5128470;27;19990;-95
2023/04/24 09:03:42;;;;;;;;;;;9.00;99.90;;;;;;5120007;27;19933;-94
2023/04/24 09:06:09;;;;;;;;;;;8.90;99.90;;;;;;5107998;27;19962;-93
2023/04/24 09:08:35;;;;;;;;;;;8.90;99.90;;;;;;5118411;27;19923;-93
2023/04/24 09:11:03;;;;;;;;;;;8.90;99.90;;;;;;5126569;27;20380;-95
2023/04/24 09:13:30;;;;;;;;;;;8.90;99.90;;;;;;5128229;27;19924;-95
2023/04/24 09:15:57;;;;;;;;;;;8.90;99.90;;;;;;5102799;27;20006;-95
2023/04/24 09:18:23;;;;;;;;;;;8.80;99.90;;;;;;5089273;27;19950;-96
2023/04/24 09:20:58;;;;;;;;;;;8.80;99.90;;;;;;5120927;27;19970;-93
2023/04/24 09:23:26;;;;;;;;;;;8.80;99.90;;;;;;5133552;27;19934;-95
2023/04/24 09:25:54;;;;;;;;;;;8.80;99.90;;;;;;5100746;27;19934;-95
2023/04/24 09:28:24;;;;;;;;;;;8.80;99.90;;;;;;5106987;27;19962;-94
2023/04/24 09:31:01;;;;;;;;;;;8.80;99.90;;;;;;5121983;27;19930;-94
2023/04/24 09:33:27;;;;;;;;;;;8.90;99.90;;;;;;5130346;27;19923;-95
2023/04/24 09:35:52;;;;;;;;;;;8.90;99.90;;;;;;5115988;27;19923;-95
2023/04/24 09:38:18;;;;;;;;;;;8.90;99.90;;;;;;5108094;27;19945;-95
2023/04/24 09:40:44;;;;;;;;;;;9.00;99.90;;;;;;5120842;27;19954;-95
2023/04/24 09:43:12;;;;;;;;;;;9.00;99.90;;;;;;5133126;27;19927;-96
2023/04/24 09:45:39;;;;;;;;;;;9.00;99.90;;;;;;5112916;27;19923;-95
2023/04/24 09:48:06;;;;;;;;;;;9.00;99.90;;;;;;5109002;27;20015;-95
2023/04/24 09:50:32;;;;;;;;;;;9.00;99.90;;;;;;5113834;27;19924;-95
2023/04/24 09:53:08;;;;;;;;;;;9.00;99.90;;;;;;5120290;27;19923;-95
2023/04/24 09:55:38;;;;;;;;;;;8.90;99.90;;;;;;5124820;27;19923;-94
2023/04/24 09:58:05;;;;;;;;;;;9.00;99.90;;;;;;5118048;27;19939;-95
2023/04/24 10:00:31;;;;;;;;;;;9.00;99.90;;;;;;5103772;27;19963;-95
2023/04/24 10:02:57;;;;;;;;;;;9.10;99.90;;;;;;5106405;27;19924;-95
2023/04/24 10:05:23;;;;;;;;;;;9.20;99.90;;;;;;5101374;27;19924;-95
2023/04/24 10:07:49;;;;;;;;;;;9.20;99.90;;;;;;5106634;27;19938;-95
2023/04/24 10:10:15;;;;;;;;;;;9.30;99.90;;;;;;5116253;27;19927;-95
2023/04/24 10:12:40;;;;;;;;;;;9.40;99.90;;;;;;5099295;27;20202;-95
2023/04/24 10:15:07;;;;;;;;;;;9.50;99.90;;;;;;5111950;28;20188;-95
2023/04/24 10:17:33;;;;;;;;;;;9.60;99.90;;;;;;5120354;27;19994;-95
2023/04/24 10:20:00;;;;;;;;;;;9.70;99.90;;;;;;5113521;27;19928;-93
2023/04/24 10:22:26;;;;;;;;;;;9.80;99.90;;;;;;5128388;27;19934;-96
2023/04/24 10:24:52;;;;;;;;;;;9.80;99.90;;;;;;5106956;27;19986;-96
2023/04/24 10:27:19;;;;;;;;;;;9.90;99.90;;;;;;5115254;27;19934;-95
2023/04/24 10:29:46;;;;;;;;;;;10.00;99.90;;;;;;5105290;27;19958;-95
2023/04/24 10:32:12;;;;;;;;;;;10.20;99.90;;;;;;5102526;28;19924;-94
2023/04/24 10:34:38;;;;;;;;;;;10.20;99.90;;;;;;5099009;27;19923;-94
2023/04/24 10:37:03;;;;;;;;;;;10.20;99.90;;;;;;5117336;27;20031;-94
2023/04/24 10:39:30;;;;;;;;;;;10.20;99.90;;;;;;5108299;27;20354;-95
2023/04/24 10:41:57;;;;;;;;;;;10.20;99.90;;;;;;5135105;27;19923;-94
2023/04/24 10:44:23;;;;;;;;;;;10.20;99.90;;;;;;5092214;28;20485;-92
2023/04/24 10:46:52;;;;;;;;;;;10.10;99.90;;;;;;5121825;28;19935;-93
2023/04/24 10:49:27;;;;;;;;;;;10.10;99.90;;;;;;5120233;27;19927;-94
2023/04/24 10:51:53;;;;;;;;;;;10.00;99.90;;;;;;5118783;28;19923;-96
2023/04/24 10:54:22;;;;;;;;;;;10.10;99.90;;;;;;5107426;28;19938;-94
2023/04/24 10:56:47;;;;;;;;;;;10.10;99.90;;;;;;5110160;28;19924;-94
2023/04/24 10:59:23;;;;;;;;;;;10.10;99.90;;;;;;5113823;28;19930;-96
2023/04/24 11:01:52;;;;;;;;;;;10.10;99.90;;;;;;5136748;28;19931;-95
2023/04/24 11:04:28;;;;;;;;;;;10.20;99.90;;;;;;5121397;28;19931;-93
2023/04/24 11:06:54;;;;;;;;;;;10.20;99.90;;;;;;5099097;28;19991;-94
2023/04/24 11:09:20;;;;;;;;;;;10.10;99.90;;;;;;5105085;28;19927;-94
2023/04/24 11:11:46;;;;;;;;;;;10.10;99.90;;;;;;5119621;28;19928;-93
2023/04/24 11:14:15;;;;;;;;;;;10.10;99.90;;;;;;5121955;28;19924;-94
2023/04/24 11:16:41;;;;;;;;;;;10.00;99.90;;;;;;5097747;28;19924;-93
2023/04/24 11:19:09;;;;;;;;;;;9.90;99.90;;;;;;5129178;28;19923;-94
2023/04/24 11:21:42;;;;;;;;;;;10.00;99.90;;;;;;5122681;28;19944;-94
2023/04/24 11:24:26;;;;;;;;;;;9.90;99.90;;;;;;5117848;28;19923;-95
2023/04/24 11:26:53;;;;;;;;;;;9.90;99.90;;;;;;5121282;28;19923;-93
2023/04/24 11:29:20;;;;;;;;;;;9.80;99.90;;;;;;5122518;28;20022;-95
2023/04/24 11:31:51;;;;;;;;;;;9.80;99.90;;;;;;5092873;28;19996;-95
2023/04/24 11:34:17;;;;;;;;;;;9.80;99.90;;;;;;5127952;28;19953;-94
2023/04/24 11:36:43;;;;;;;;;;;9.80;99.90;;;;;;5147836;28;19930;-95
2023/04/24 11:39:11;;;;;;;;;;;9.70;99.90;;;;;;5123607;28;19938;-94
2023/04/24 11:41:36;;;;;;;;;;;9.60;99.90;;;;;;5105868;28;19991;-94
2023/04/24 11:44:04;;;;;;;;;;;9.60;99.90;;;;;;5103511;28;19923;-95
2023/04/24 11:46:30;;;;;;;;;;;9.60;99.90;;;;;;5099689;28;19947;-94
2023/04/24 11:48:56;;;;;;;;;;;9.70;99.90;;;;;;5127635;28;19935;-96
2023/04/24 11:51:26;;;;;;;;;;;9.60;99.90;;;;;;5118769;28;19924;-93
2023/04/24 11:53:52;;;;;;;;;;;9.60;99.90;;;;;;5105253;28;19923;-94
2023/04/24 11:56:19;;;;;;;;;;;9.60;99.90;;;;;;5117880;28;19927;-95
2023/04/24 11:58:45;;;;;;;;;;;9.60;99.90;;;;;;5115574;28;19962;-94
2023/04/24 12:01:11;;;;;;;;;;;9.40;99.90;;;;;;5118115;28;19976;-94
2023/04/24 12:03:36;;;;;;;;;;;9.30;99.90;;;;;;5109854;28;19927;-95
2023/04/24 12:06:07;;;;;;;;;;;9.20;99.90;;;;;;5098448;28;19931;-94
2023/04/24 12:08:33;;;;;;;;;;;9.10;99.90;;;;;;5116213;27;19924;-93
2023/04/24 12:11:02;;;;;;;;;;;9.00;99.90;;;;;;5128686;27;19950;-96
2023/04/24 12:13:28;;;;;;;;;;;8.90;99.90;;;;;;5125339;27;20386;-96
2023/04/24 12:15:54;;;;;;;;;;;8.90;99.90;;;;;;5108140;28;19992;-95
2023/04/24 12:18:22;;;;;;;;;;;8.80;99.90;;;;;;5124457;27;19928;-96
2023/04/24 12:20:48;;;;;;;;;;;8.80;99.90;;;;;;5113540;28;19963;-96
2023/04/24 12:23:14;;;;;;;;;;;8.70;99.90;;;;;;5120528;27;19923;-96
2023/04/24 12:25:40;;;;;;;;;;;8.80;99.90;;;;;;5113478;27;20298;-96
2023/04/24 12:28:07;;;;;;;;;;;8.90;99.90;;;;;;5107481;28;19935;-96
2023/04/24 12:30:48;;;;;;;;;;;9.10;99.90;;;;;;5130607;27;19923;-95
2023/04/24 12:33:18;;;;;;;;;;;9.20;99.90;;;;;;5145020;27;19927;-95
2023/04/24 12:35:43;;;;;;;;;;;9.30;99.90;;;;;;5120643;28;19924;-96
2023/04/24 12:38:11;;;;;;;;;;;7.80;99.90;;;;;;5125485;27;20032;-96
2023/04/24 12:40:36;;;;;;;;;;;10.80;99.90;;;;;;5117253;27;19924;-93
2023/04/24 12:43:12;;;;;;;;;;;9.50;99.90;;;;;;5133245;27;19942;-95
2023/04/24 12:45:41;;;;;;;;;;;9.60;99.90;;;;;;5122061;27;19923;-96
2023/04/24 12:48:06;;;;;;;;;;;9.60;99.90;;;;;;5116057;27;19934;-95
2023/04/24 12:50:32;;;;;;;;;;;9.70;99.90;;;;;;5119834;28;19983;-94
2023/04/24 12:52:58;;;;;;;;;;;9.60;99.90;;;;;;5109740;27;19923;-94
2023/04/24 12:55:23;;;;;;;;;;;9.30;99.90;;;;;;5139770;27;19930;-95
2023/04/24 12:57:51;;;;;;;;;;;9.80;99.90;;;;;;5167800;27;19927;-96
2023/04/24 13:00:17;;;;;;;;;;;9.60;99.90;;;;;;5112692;27;19907;-95
2023/04/24 13:02:43;;;;;;;;;;;9.90;99.90;;;;;;5128714;28;19908;-96
2023/04/24 13:05:11;;;;;;;;;;;8.90;99.90;;;;;;5112132;22;19931;-85
2023/04/24 13:07:36;;;;;;;;;;;9.60;99.90;;;;;;5054134;28;19928;-86
2023/04/24 13:10:02;;;;;;;;;;;9.60;99.90;;;;;;5054057;28;19931;-86
2023/04/24 13:12:28;;;;;;;;;;;9.50;99.90;;;;;;5040939;28;19925;-86
2023/04/24 13:14:54;;;;;;;;;;;9.50;99.90;;;;;;5044899;28;19924;-86
2023/04/24 13:17:20;;;;;;;;;;;9.40;99.90;;;;;;5048616;28;19925;-85
2023/04/24 13:19:45;;;;;;;;;;;9.30;99.90;;;;;;5053509;28;20024;-86
2023/04/24 13:22:11;;;;;;;;;;;9.40;99.90;;;;;;5052435;28;19924;-85
2023/04/24 13:24:37;;;;;;;;;;;9.40;99.90;;;;;;5034870;28;19933;-85
2023/04/24 13:27:03;;;;;;;;;;;9.40;99.90;;;;;;5071044;28;20292;-85
2023/04/24 13:29:29;;;;;;;;;;;9.40;99.90;;;;;;5053648;28;20083;-86
2023/04/24 13:31:55;;;;;;;;;;;9.40;99.90;;;;;;5030074;28;19929;-85
2023/04/24 13:34:22;;;;;;;;;;;9.40;99.90;;;;;;5052366;28;19924;-85
2023/04/24 13:36:47;;;;;;;;;;;9.40;99.90;;;;;;5053501;28;20378;-85
2023/04/24 13:39:13;;;;;;;;;;;9.50;99.90;;;;;;5054264;28;19979;-88
2023/04/24 13:41:39;;;;;;;;;;;9.60;99.90;;;;;;5048551;28;20256;-90
2023/04/24 13:44:05;;;;;;;;;;;9.60;99.90;;;;;;5063842;28;19932;-89
2023/04/24 13:46:31;;;;;;;;;;;9.50;99.90;;;;;;5057182;28;20351;-88
2023/04/24 13:48:57;;;;;;;;;;;9.50;99.90;;;;;;5043496;28;20002;-91
2023/04/24 13:51:29;;;;;;;;;;;9.30;99.90;;;;;;5062581;28;19924;-89
2023/04/24 13:53:55;;;;;;;;;;;9.30;99.90;;;;;;5063115;28;19940;-91
2023/04/24 13:56:20;;;;;;;;;;;9.20;99.90;;;;;;5040516;28;19924;-90
2023/04/24 13:58:46;;;;;;;;;;;9.20;99.90;;;;;;5053196;28;20019;-88
2023/04/24 14:01:12;;;;;;;;;;;9.10;99.90;;;;;;5050056;28;19930;-88
2023/04/24 14:03:38;;;;;;;;;;;9.10;99.90;;;;;;5028805;28;20541;-88
2023/04/24 14:06:04;;;;;;;;;;;9.10;99.90;;;;;;5026234;28;19990;-88
2023/04/24 14:08:30;;;;;;;;;;;7.90;99.90;;;;;;5052699;28;19932;-89
2023/04/24 14:10:55;;;;;;;;;;;10.30;99.90;;;;;;5057606;28;19972;-89
2023/04/24 14:13:21;;;;;;;;;;;8.90;99.90;;;;;;5056756;28;19968;-89
2023/04/24 14:15:47;;;;;;;;;;;8.80;99.90;;;;;;5046099;28;20024;-88
2023/04/24 14:18:12;;;;;;;;;;;8.70;99.90;;;;;;5039556;28;20055;-89
2023/04/24 14:20:38;;;;;;;;;;;8.70;99.90;;;;;;5044375;28;19925;-89